Time;durP1;ratioP1;P1;durP2;ratioP2;P2;SDS_P1;SDS_P2;PMS_P1;PMS_P2;Temp;Humidity;BMP_temperature;BMP_pressure;BME280_temperature;BME280_humidity;BME280_pressure;Samples;Min_cycle;Max_cycle;Signal;HPM_P1;HPM_P2
2022/03/25 00:00:12;;;;;;;40.77;30.53;;;7.10;99.90;;;;;;5097470;28;20472;-79
2022/03/25 00:02:40;;;;;;;42.60;30.47;;;7.10;99.90;;;;;;5096724;28;20440;-79
2022/03/25 00:05:09;;;;;;;43.97;30.23;;;7.10;99.90;;;;;;5092443;28;20463;-78
2022/03/25 00:07:36;;;;;;;38.30;28.93;;;7.10;99.90;;;;;;5096905;28;20454;-78
2022/03/25 00:10:03;;;;;;;44.13;30.07;;;7.10;99.90;;;;;;5096304;28;20454;-80
2022/03/25 00:12:31;;;;;;;43.53;29.20;;;7.00;99.90;;;;;;5096212;28;20834;-78
2022/03/25 00:14:58;;;;;;;40.03;29.53;;;7.00;99.90;;;;;;5096716;28;20490;-79
2022/03/25 00:17:26;;;;;;;47.03;30.13;;;7.00;99.90;;;;;;5096738;28;20462;-79
2022/03/25 00:19:53;;;;;;;43.20;30.97;;;7.00;99.90;;;;;;5098461;28;20459;-79
2022/03/25 00:22:20;;;;;;;40.47;29.50;;;6.90;99.90;;;;;;5099472;28;20447;-78
2022/03/25 00:24:47;;;;;;;43.37;29.60;;;6.90;99.90;;;;;;5102959;28;20477;-77
2022/03/25 00:27:14;;;;;;;42.63;29.43;;;6.90;99.90;;;;;;5096755;28;20454;-79
2022/03/25 00:29:41;;;;;;;37.87;29.30;;;6.90;99.90;;;;;;5096048;28;20470;-79
2022/03/25 00:32:08;;;;;;;39.93;28.60;;;6.80;99.90;;;;;;5096363;28;20450;-79
2022/03/25 00:34:36;;;;;;;39.33;28.07;;;6.80;99.90;;;;;;5095358;28;20503;-78
2022/03/25 00:37:04;;;;;;;41.63;28.87;;;6.80;99.90;;;;;;5096026;28;20466;-79
2022/03/25 00:39:30;;;;;;;39.53;28.47;;;6.80;99.90;;;;;;5093329;28;20457;-78
2022/03/25 00:41:57;;;;;;;43.70;30.77;;;6.70;99.90;;;;;;5094210;28;20468;-79
2022/03/25 00:44:24;;;;;;;40.67;30.43;;;6.70;99.90;;;;;;5093517;28;20471;-78
2022/03/25 00:46:51;;;;;;;41.87;28.37;;;6.70;99.90;;;;;;5094464;28;21003;-78
2022/03/25 00:49:18;;;;;;;44.00;29.77;;;6.60;99.90;;;;;;5083147;28;20455;-77
2022/03/25 00:51:47;;;;;;;44.83;30.07;;;6.60;99.90;;;;;;5093383;28;20977;-78
2022/03/25 00:54:14;;;;;;;41.47;28.50;;;6.60;99.90;;;;;;5092170;28;20517;-77
2022/03/25 00:56:41;;;;;;;41.20;29.37;;;6.60;99.90;;;;;;5093775;28;20799;-79
2022/03/25 00:59:09;;;;;;;40.97;30.37;;;6.50;99.90;;;;;;5094376;28;20457;-78
2022/03/25 01:01:37;;;;;;;41.30;30.27;;;6.50;99.90;;;;;;5094515;28;20446;-78
2022/03/25 01:04:04;;;;;;;42.70;29.00;;;6.40;99.90;;;;;;5093041;28;20463;-77
2022/03/25 01:06:31;;;;;;;43.13;31.63;;;6.40;99.90;;;;;;5093874;28;20457;-78
2022/03/25 01:08:59;;;;;;;40.90;29.50;;;6.40;99.90;;;;;;5093962;28;20534;-78
2022/03/25 01:11:26;;;;;;;47.23;29.50;;;6.40;99.90;;;;;;5094302;28;20451;-78
2022/03/25 01:13:53;;;;;;;51.77;29.70;;;6.30;99.90;;;;;;5092607;28;20492;-78
2022/03/25 01:16:20;;;;;;;44.20;31.07;;;6.30;99.90;;;;;;5093408;28;20970;-78
2022/03/25 01:18:47;;;;;;;49.80;30.53;;;6.30;99.90;;;;;;5094308;28;20462;-78
2022/03/25 01:21:13;;;;;;;45.60;29.60;;;6.20;99.90;;;;;;5094556;28;20451;-77
2022/03/25 01:23:40;;;;;;;44.47;32.03;;;6.20;99.90;;;;;;5094214;28;20855;-78
2022/03/25 01:26:08;;;;;;;42.00;28.93;;;6.30;99.90;;;;;;5094257;28;20965;-78
2022/03/25 01:28:35;;;;;;;44.63;31.20;;;6.20;99.90;;;;;;5093205;28;20457;-77
2022/03/25 01:31:03;;;;;;;47.60;32.33;;;6.20;99.90;;;;;;5094963;28;20446;-78
2022/03/25 01:33:30;;;;;;;44.07;31.00;;;6.20;99.90;;;;;;5093247;28;20593;-78
2022/03/25 01:35:57;;;;;;;48.43;31.13;;;6.10;99.90;;;;;;5093917;28;20535;-77
2022/03/25 01:38:25;;;;;;;45.40;30.33;;;6.10;99.90;;;;;;5094731;28;20450;-78
2022/03/25 01:40:52;;;;;;;44.13;30.23;;;6.10;99.90;;;;;;5094228;28;20454;-80
2022/03/25 01:43:21;;;;;;;53.80;30.87;;;6.10;99.90;;;;;;5093880;28;21314;-78
2022/03/25 01:45:47;;;;;;;46.47;32.87;;;6.10;99.90;;;;;;5094206;28;20855;-79
2022/03/25 01:48:16;;;;;;;38.40;28.30;;;6.00;99.90;;;;;;5093915;28;20544;-78
2022/03/25 01:50:45;;;;;;;43.27;30.57;;;6.00;99.90;;;;;;5093353;28;20457;-78
2022/03/25 01:53:14;;;;;;;44.27;30.80;;;5.90;99.90;;;;;;5093893;28;20486;-78
2022/03/25 01:55:48;;;;;;;45.17;29.87;;;5.90;99.90;;;;;;5093744;28;20457;-80
2022/03/25 01:58:15;;;;;;;42.80;30.40;;;5.90;99.90;;;;;;5094572;28;20449;-78
2022/03/25 02:00:43;;;;;;;41.57;29.10;;;5.90;99.90;;;;;;5094257;28;20455;-78
2022/03/25 02:03:10;;;;;;;45.10;30.70;;;5.80;99.90;;;;;;5093069;28;20477;-78
2022/03/25 02:05:37;;;;;;;40.97;28.23;;;5.80;99.90;;;;;;5095087;28;20454;-79
2022/03/25 02:08:04;;;;;;;46.80;32.20;;;5.80;99.90;;;;;;5095187;28;20470;-79
2022/03/25 02:10:31;;;;;;;45.83;32.60;;;5.80;99.90;;;;;;5094702;28;20492;-80
2022/03/25 02:12:58;;;;;;;47.43;31.57;;;5.80;99.90;;;;;;5094276;28;20492;-78
2022/03/25 02:15:36;;;;;;;50.73;32.87;;;5.70;99.90;;;;;;5095340;28;20473;-78
2022/03/25 02:18:06;;;;;;;42.40;29.43;;;5.60;99.90;;;;;;5094556;28;20475;-79
2022/03/25 02:20:33;;;;;;;40.47;28.77;;;5.60;99.90;;;;;;5094707;28;20459;-79
2022/03/25 02:23:01;;;;;;;46.53;31.40;;;5.60;99.90;;;;;;5093945;28;20477;-77
2022/03/25 02:25:30;;;;;;;43.07;29.10;;;5.50;99.90;;;;;;5098333;28;20457;-78
2022/03/25 02:27:58;;;;;;;45.90;31.83;;;5.50;99.90;;;;;;5099065;28;20556;-79
2022/03/25 02:30:25;;;;;;;42.30;30.20;;;5.60;99.90;;;;;;5098544;28;20453;-78
2022/03/25 02:32:52;;;;;;;47.50;32.73;;;5.60;99.90;;;;;;5098371;28;20541;-79
2022/03/25 02:35:19;;;;;;;45.63;32.30;;;5.60;99.90;;;;;;5099030;28;20487;-79
2022/03/25 02:37:46;;;;;;;43.43;30.63;;;5.60;99.90;;;;;;5108585;28;20445;-77
2022/03/25 02:40:14;;;;;;;49.20;30.43;;;5.50;99.90;;;;;;5102898;28;20484;-78
2022/03/25 02:42:41;;;;;;;44.40;30.77;;;5.50;99.90;;;;;;5098073;28;20457;-78
2022/03/25 02:45:09;;;;;;;51.30;33.33;;;5.50;99.90;;;;;;5097668;28;20460;-78
2022/03/25 02:47:35;;;;;;;44.97;31.67;;;5.50;99.90;;;;;;5098125;28;20449;-78
2022/03/25 02:50:02;;;;;;;46.33;31.23;;;5.50;99.90;;;;;;5098652;28;20537;-77
2022/03/25 02:52:29;;;;;;;45.20;31.30;;;5.30;99.90;;;;;;5098721;28;20452;-79
2022/03/25 02:54:56;;;;;;;44.63;30.97;;;5.30;99.90;;;;;;5096019;28;20986;-79
2022/03/25 02:57:24;;;;;;;49.33;31.00;;;5.30;99.90;;;;;;5098227;28;20548;-78
2022/03/25 02:59:51;;;;;;;46.47;32.13;;;5.30;99.90;;;;;;5097831;28;20484;-77
2022/03/25 03:02:17;;;;;;;45.67;31.57;;;5.30;99.90;;;;;;5098157;28;20449;-79
2022/03/25 03:04:45;;;;;;;48.40;30.93;;;5.30;99.90;;;;;;5096885;28;20471;-78
2022/03/25 03:07:12;;;;;;;48.80;32.57;;;5.30;99.90;;;;;;5098375;28;20483;-78
2022/03/25 03:09:38;;;;;;;46.63;32.63;;;5.30;99.90;;;;;;5097881;28;20454;-77
2022/03/25 03:12:06;;;;;;;44.57;31.40;;;5.30;99.90;;;;;;5097566;28;20480;-79
2022/03/25 03:14:34;;;;;;;43.87;32.03;;;5.30;99.90;;;;;;5096185;28;20522;-79
2022/03/25 03:17:01;;;;;;;42.20;31.20;;;5.30;99.90;;;;;;5098104;28;20463;-78
2022/03/25 03:19:28;;;;;;;44.57;30.93;;;5.20;99.90;;;;;;5098221;28;20488;-79
2022/03/25 03:21:54;;;;;;;42.73;31.13;;;5.10;99.90;;;;;;5097529;28;20463;-78
2022/03/25 03:24:21;;;;;;;41.70;30.40;;;5.10;99.90;;;;;;5097252;28;20616;-78
2022/03/25 03:26:48;;;;;;;47.47;32.00;;;5.10;99.90;;;;;;5096161;28;20513;-78
2022/03/25 03:29:15;;;;;;;46.27;31.13;;;5.10;99.90;;;;;;5097741;28;20863;-79
2022/03/25 03:31:43;;;;;;;42.40;31.33;;;5.10;99.90;;;;;;5097260;28;20485;-78
2022/03/25 03:34:10;;;;;;;44.97;31.37;;;5.10;99.90;;;;;;5096668;28;20496;-77
2022/03/25 03:36:36;;;;;;;47.50;30.77;;;5.10;99.90;;;;;;5096872;28;20458;-79
2022/03/25 03:39:03;;;;;;;51.23;33.70;;;5.10;99.90;;;;;;5097619;28;20460;-78
2022/03/25 03:41:30;;;;;;;48.13;31.17;;;5.00;99.90;;;;;;5097442;28;20485;-78
2022/03/25 03:43:57;;;;;;;42.50;30.90;;;5.00;99.90;;;;;;5095415;28;20481;-80
2022/03/25 03:46:24;;;;;;;46.53;30.63;;;5.00;99.90;;;;;;5097615;28;20447;-80
2022/03/25 03:48:52;;;;;;;44.33;31.77;;;5.00;99.90;;;;;;5095601;28;20554;-77
2022/03/25 03:51:19;;;;;;;48.50;30.83;;;5.00;99.90;;;;;;5087062;28;20469;-79
2022/03/25 03:53:45;;;;;;;48.47;32.13;;;5.00;99.90;;;;;;5093344;28;21015;-78
2022/03/25 03:56:12;;;;;;;42.63;31.27;;;5.00;99.90;;;;;;5080681;28;20452;-77
2022/03/25 03:58:40;;;;;;;45.40;31.13;;;4.90;99.90;;;;;;5097159;28;20456;-77
2022/03/25 04:01:07;;;;;;;48.93;33.40;;;4.90;99.90;;;;;;5096352;28;20456;-79
2022/03/25 04:03:34;;;;;;;46.93;32.87;;;4.90;99.90;;;;;;5096220;28;20992;-79
2022/03/25 04:06:03;;;;;;;46.93;33.50;;;4.90;99.90;;;;;;5096861;28;20462;-78
2022/03/25 04:08:30;;;;;;;50.70;32.47;;;4.80;99.90;;;;;;5096625;28;20455;-79
2022/03/25 04:10:57;;;;;;;42.33;29.70;;;4.80;99.90;;;;;;5096372;28;20461;-77
2022/03/25 04:13:23;;;;;;;50.50;34.80;;;4.80;99.90;;;;;;5093950;28;20497;-77
2022/03/25 04:15:50;;;;;;;49.70;33.47;;;4.60;99.90;;;;;;5087301;28;21054;-78
2022/03/25 04:18:18;;;;;;;48.63;32.50;;;4.60;99.90;;;;;;5076219;28;20498;-79
2022/03/25 04:20:45;;;;;;;43.40;31.00;;;4.70;99.90;;;;;;5084442;28;20459;-78
2022/03/25 04:23:13;;;;;;;48.73;32.47;;;4.60;99.90;;;;;;5094481;28;20475;-77
2022/03/25 04:25:40;;;;;;;51.53;33.00;;;4.70;99.90;;;;;;5089570;28;20444;-78
2022/03/25 04:28:07;;;;;;;43.00;30.40;;;4.70;99.90;;;;;;5083541;28;20525;-78
2022/03/25 04:30:35;;;;;;;43.50;31.23;;;4.60;99.90;;;;;;5085839;28;20462;-79
2022/03/25 04:33:03;;;;;;;48.27;32.03;;;4.60;99.90;;;;;;5089738;28;20928;-78
2022/03/25 04:35:30;;;;;;;47.53;32.50;;;4.70;99.90;;;;;;5095003;28;20576;-79
2022/03/25 04:37:58;;;;;;;44.13;31.10;;;4.70;99.90;;;;;;5093358;28;20443;-80
2022/03/25 04:40:28;;;;;;;49.13;32.20;;;4.70;99.90;;;;;;5094950;28;20449;-78
2022/03/25 04:42:56;;;;;;;49.50;31.07;;;4.60;99.90;;;;;;5095283;28;20457;-78
2022/03/25 04:45:24;;;;;;;49.50;33.40;;;4.70;99.90;;;;;;5095248;28;20449;-78
2022/03/25 04:47:51;;;;;;;44.83;30.37;;;4.60;99.90;;;;;;5095253;28;20460;-78
2022/03/25 04:50:18;;;;;;;45.97;31.03;;;4.50;99.90;;;;;;5103625;28;20452;-77
2022/03/25 04:52:46;;;;;;;57.57;32.67;;;4.50;99.90;;;;;;5107965;28;20459;-77
2022/03/25 04:55:13;;;;;;;47.43;30.30;;;4.50;99.90;;;;;;5095167;28;21168;-78
2022/03/25 04:57:42;;;;;;;48.10;31.70;;;4.40;99.90;;;;;;5095728;28;20537;-79
2022/03/25 05:00:10;;;;;;;53.60;33.10;;;4.50;99.90;;;;;;5118176;22;20903;-80
2022/03/25 05:02:37;;;;;;;47.23;31.90;;;4.40;99.90;;;;;;5083882;28;20488;-82
2022/03/25 05:05:04;;;;;;;49.17;32.03;;;4.40;99.90;;;;;;5094595;28;20860;-82
2022/03/25 05:07:31;;;;;;;48.90;33.57;;;4.40;99.90;;;;;;5095838;28;20462;-80
2022/03/25 05:09:59;;;;;;;52.83;33.53;;;4.40;99.90;;;;;;5090848;28;20500;-81
2022/03/25 05:12:27;;;;;;;48.17;31.90;;;4.40;99.90;;;;;;5067181;28;20446;-80
2022/03/25 05:14:55;;;;;;;54.37;31.33;;;4.50;99.90;;;;;;5071432;28;20486;-82
2022/03/25 05:17:22;;;;;;;50.57;32.30;;;4.50;99.90;;;;;;5063397;28;20484;-81
2022/03/25 05:19:49;;;;;;;51.03;32.63;;;4.50;99.90;;;;;;5072875;28;20469;-80
2022/03/25 05:22:16;;;;;;;48.43;33.27;;;4.50;99.90;;;;;;5076389;28;20460;-80
2022/03/25 05:24:43;;;;;;;50.33;31.70;;;4.50;99.90;;;;;;5073225;28;20472;-79
2022/03/25 05:27:09;;;;;;;49.78;33.10;;;4.50;99.90;;;;;;5077473;28;20446;-83
2022/03/25 05:29:36;;;;;;;46.30;31.57;;;4.50;99.90;;;;;;5077519;28;20970;-84
2022/03/25 05:32:05;;;;;;;45.30;32.47;;;4.50;99.90;;;;;;5076383;28;20453;-82
2022/03/25 05:34:32;;;;;;;46.67;34.00;;;4.60;99.90;;;;;;5075403;28;21064;-82
2022/03/25 05:36:59;;;;;;;50.27;34.33;;;4.60;99.90;;;;;;5075826;28;20455;-82
2022/03/25 05:39:26;;;;;;;46.80;34.10;;;4.60;99.90;;;;;;5076228;28;20453;-81
2022/03/25 05:41:53;;;;;;;52.70;34.80;;;4.60;99.90;;;;;;5075670;28;21021;-82
2022/03/25 05:44:19;;;;;;;51.20;34.87;;;4.60;99.90;;;;;;5075768;28;20454;-81
2022/03/25 05:46:46;;;;;;;51.77;34.60;;;4.60;99.90;;;;;;5076810;28;20551;-81
2022/03/25 05:49:15;;;;;;;49.37;33.10;;;4.70;99.90;;;;;;5078636;28;20450;-81
2022/03/25 05:51:41;;;;;;;48.80;31.70;;;4.80;99.90;;;;;;5079177;28;20471;-82
2022/03/25 05:54:08;;;;;;;49.07;32.63;;;4.80;99.90;;;;;;5083621;28;20509;-83
2022/03/25 05:56:36;;;;;;;53.50;34.20;;;4.80;99.90;;;;;;5085475;28;20982;-80
2022/03/25 05:59:03;;;;;;;57.40;35.60;;;4.80;99.90;;;;;;5071625;28;20652;-80
2022/03/25 06:01:30;;;;;;;48.70;32.30;;;4.80;99.90;;;;;;5074649;28;20481;-82
2022/03/25 06:03:56;;;;;;;52.80;34.03;;;4.90;99.90;;;;;;5075087;28;20459;-81
2022/03/25 06:06:25;;;;;;;46.23;33.30;;;5.00;99.90;;;;;;5084267;28;20550;-81
2022/03/25 06:08:52;;;;;;;47.67;32.70;;;5.10;99.90;;;;;;5079661;28;21057;-83
2022/03/25 06:11:22;;;;;;;53.60;33.37;;;5.10;99.90;;;;;;5058339;28;20528;-81
2022/03/25 06:13:49;;;;;;;46.17;32.53;;;5.20;99.90;;;;;;5054545;28;20547;-81
2022/03/25 06:16:17;;;;;;;52.57;34.00;;;5.30;99.90;;;;;;5057430;28;20553;-81
2022/03/25 06:18:43;;;;;;;48.37;32.50;;;5.30;99.90;;;;;;5056975;28;20462;-81
2022/03/25 06:21:10;;;;;;;51.13;33.77;;;5.40;99.90;;;;;;5058046;28;20489;-83
2022/03/25 06:23:38;;;;;;;55.00;33.70;;;5.50;99.90;;;;;;5057169;28;20467;-81
2022/03/25 06:26:07;;;;;;;51.60;34.23;;;5.50;99.90;;;;;;5056558;28;20534;-81
2022/03/25 06:28:35;;;;;;;50.80;33.80;;;5.70;99.90;;;;;;5056525;28;20588;-82
2022/03/25 06:31:01;;;;;;;48.70;35.00;;;5.70;99.90;;;;;;5057283;28;20510;-81
2022/03/25 06:33:28;;;;;;;46.47;32.93;;;5.80;99.90;;;;;;5056394;28;20464;-82
2022/03/25 06:35:55;;;;;;;44.30;32.60;;;5.90;99.90;;;;;;5056716;28;20483;-83
2022/03/25 06:38:22;;;;;;;44.27;32.20;;;6.00;99.90;;;;;;5057310;28;20504;-82
2022/03/25 06:40:51;;;;;;;47.10;35.37;;;6.10;99.90;;;;;;5056946;28;20562;-82
2022/03/25 06:43:18;;;;;;;52.63;35.23;;;6.30;99.90;;;;;;5049092;28;20460;-81
2022/03/25 06:45:45;;;;;;;48.23;33.77;;;6.40;99.90;;;;;;5057348;28;20451;-81
2022/03/25 06:48:12;;;;;;;48.73;33.60;;;6.50;99.90;;;;;;5057553;28;20466;-81
2022/03/25 06:50:40;;;;;;;50.00;35.47;;;6.70;99.90;;;;;;5059544;28;20495;-80
2022/03/25 06:53:08;;;;;;;46.83;32.83;;;6.80;99.90;;;;;;5067543;28;20479;-81
2022/03/25 06:55:36;;;;;;;52.97;35.87;;;6.90;99.90;;;;;;5066501;28;20463;-81
2022/03/25 06:58:05;;;;;;;47.43;31.40;;;7.10;99.90;;;;;;5066774;28;20474;-82
2022/03/25 07:00:33;;;;;;;50.00;34.00;;;7.20;99.90;;;;;;5066937;28;20523;-83
2022/03/25 07:03:00;;;;;;;53.53;34.23;;;7.30;99.90;;;;;;5066929;28;20507;-84
2022/03/25 07:05:30;;;;;;;49.13;33.73;;;7.40;99.90;;;;;;5065560;28;20474;-83
2022/03/25 07:07:57;;;;;;;46.90;32.63;;;7.50;99.90;;;;;;5058711;28;20509;-82
2022/03/25 07:10:26;;;;;;;49.60;32.83;;;7.70;99.90;;;;;;5057382;28;21009;-84
2022/03/25 07:12:54;;;;;;;60.43;35.80;;;7.80;99.90;;;;;;5052437;28;20456;-81
2022/03/25 07:15:24;;;;;;;48.13;34.73;;;8.00;99.90;;;;;;5050390;28;20529;-80
2022/03/25 07:17:54;;;;;;;47.47;32.57;;;8.10;99.90;;;;;;5048222;28;20433;-82
2022/03/25 07:20:22;;;;;;;44.13;31.37;;;8.20;99.90;;;;;;5055808;28;20499;-79
2022/03/25 07:22:52;;;;;;;43.13;30.83;;;8.30;99.90;;;;;;5065552;28;20458;-79
2022/03/25 07:25:19;;;;;;;46.27;32.77;;;8.40;99.90;;;;;;5056397;28;20450;-82
2022/03/25 07:27:48;;;;;;;46.57;31.77;;;8.60;99.90;;;;;;5055628;28;20936;-81
2022/03/25 07:30:18;;;;;;;44.03;30.67;;;8.70;99.90;;;;;;5058570;28;20487;-81
2022/03/25 07:32:47;;;;;;;41.83;30.20;;;8.90;99.90;;;;;;5064384;28;20457;-84
2022/03/25 07:35:14;;;;;;;44.20;30.80;;;9.10;99.90;;;;;;5054712;28;20490;-80
2022/03/25 07:37:42;;;;;;;43.97;30.90;;;9.20;99.90;;;;;;5058389;28;20455;-83
2022/03/25 07:40:11;;;;;;;51.50;34.33;;;9.40;99.90;;;;;;5055410;28;20469;-79
2022/03/25 07:42:39;;;;;;;44.17;32.63;;;9.50;99.90;;;;;;5057994;28;20455;-82
2022/03/25 07:45:08;;;;;;;47.73;32.87;;;9.70;99.90;;;;;;5055003;28;20453;-81
2022/03/25 07:47:39;;;;;;;47.93;32.97;;;9.80;99.90;;;;;;5055868;28;20460;-81
2022/03/25 07:50:09;;;;;;;44.30;32.03;;;10.10;99.90;;;;;;5061411;28;20471;-85
2022/03/25 07:52:35;;;;;;;43.80;30.27;;;10.50;99.90;;;;;;5060045;28;20447;-79
2022/03/25 07:55:03;;;;;;;47.90;34.13;;;11.00;99.90;;;;;;5058548;28;20494;-81
2022/03/25 07:57:30;;;;;;;41.47;30.10;;;11.60;99.90;;;;;;5061624;28;20456;-83
2022/03/25 07:59:58;;;;;;;57.03;34.17;;;12.10;99.90;;;;;;5055310;28;20460;-79
2022/03/25 08:02:25;;;;;;;43.43;32.47;;;12.50;99.90;;;;;;5055205;28;20449;-83
2022/03/25 08:04:52;;;;;;;44.57;31.73;;;12.70;99.90;;;;;;5054084;28;20468;-81
2022/03/25 08:07:20;;;;;;;45.77;32.63;;;12.80;99.90;;;;;;5061839;28;20497;-82
2022/03/25 08:09:47;;;;;;;43.67;31.77;;;13.10;99.90;;;;;;5065944;28;20455;-80
2022/03/25 08:12:14;;;;;;;48.80;33.63;;;13.60;99.90;;;;;;5061773;28;20535;-79
2022/03/25 08:14:40;;;;;;;43.47;34.20;;;14.00;99.90;;;;;;5058093;28;20488;-78
2022/03/25 08:17:08;;;;;;;37.40;30.27;;;14.60;99.90;;;;;;5065307;28;20509;-80
2022/03/25 08:19:34;;;;;;;48.30;34.90;;;15.00;99.90;;;;;;5059317;28;20451;-79
2022/03/25 08:22:01;;;;;;;47.57;33.63;;;14.90;99.90;;;;;;5051265;28;20459;-80
2022/03/25 08:29:58;;;;;;;39.27;32.00;;;16.90;99.90;;;;;;5058121;28;20853;-78
2022/03/25 08:32:25;;;;;;;43.17;30.80;;;18.10;99.90;;;;;;5057984;28;20517;-80
2022/03/25 08:34:52;;;;;;;38.10;29.50;;;18.10;99.90;;;;;;5053518;28;20459;-80
2022/03/25 08:37:19;;;;;;;41.43;30.50;;;18.70;99.90;;;;;;5059822;28;20459;-80
2022/03/25 08:39:47;;;;;;;34.97;28.17;;;19.50;99.90;;;;;;5055501;28;20562;-82
2022/03/25 08:42:15;;;;;;;41.37;29.47;;;19.90;99.90;;;;;;5059880;28;20566;-82
2022/03/25 08:44:42;;;;;;;34.40;29.87;;;21.10;99.90;;;;;;5061495;28;20480;-82
2022/03/25 08:47:09;;;;;;;34.77;27.60;;;21.40;99.90;;;;;;5063707;28;20450;-80
2022/03/25 08:49:36;;;;;;;36.50;28.90;;;22.10;96.90;;;;;;5048599;28;20543;-78
2022/03/25 08:52:03;;;;;;;36.53;28.97;;;22.90;95.70;;;;;;5048307;28;20457;-80
2022/03/25 08:54:30;;;;;;;37.73;27.90;;;22.80;92.10;;;;;;5049712;28;20457;-78
2022/03/25 08:56:59;;;;;;;34.03;28.20;;;22.50;88.70;;;;;;5056551;28;20495;-80
2022/03/25 08:59:25;;;;;;;37.80;27.10;;;22.20;88.00;;;;;;5053222;28;20550;-79
2022/03/25 09:01:56;;;;;;;29.93;25.17;;;23.70;87.30;;;;;;5056176;28;20826;-80
2022/03/25 09:04:23;;;;;;;36.60;28.50;;;24.00;80.70;;;;;;5057654;28;20452;-79
2022/03/25 09:06:49;;;;;;;31.53;23.97;;;24.70;77.60;;;;;;5059938;28;20504;-78
2022/03/25 09:09:16;;;;;;;35.03;28.03;;;25.60;79.70;;;;;;5056540;28;20462;-79
2022/03/25 09:11:43;;;;;;;32.40;26.40;;;26.50;72.30;;;;;;5057688;28;20483;-80
2022/03/25 09:14:11;;;;;;;30.60;24.93;;;27.10;65.40;;;;;;5052644;28;20830;-79
2022/03/25 09:16:38;;;;;;;31.60;25.80;;;25.70;63.50;;;;;;5058680;28;20491;-80
2022/03/25 09:19:05;;;;;;;29.53;26.20;;;25.50;60.70;;;;;;5056078;28;20510;-80
2022/03/25 09:21:32;;;;;;;27.60;24.60;;;24.10;59.20;;;;;;5055355;28;20476;-80
2022/03/25 09:23:59;;;;;;;26.97;23.60;;;24.40;61.20;;;;;;5062912;28;20452;-81
2022/03/25 09:26:26;;;;;;;28.43;22.87;;;25.00;59.40;;;;;;5057134;28;20864;-81
2022/03/25 09:28:52;;;;;;;31.30;25.27;;;25.20;58.50;;;;;;5055898;28;20543;-80
2022/03/25 09:31:21;;;;;;;28.47;24.77;;;24.10;57.50;;;;;;5059313;28;20464;-79
2022/03/25 09:33:47;;;;;;;27.63;22.60;;;24.10;56.90;;;;;;5058244;28;20479;-82
2022/03/25 09:36:15;;;;;;;28.53;23.07;;;25.30;56.80;;;;;;5051446;28;20475;-82
2022/03/25 09:38:42;;;;;;;30.60;25.53;;;26.30;57.00;;;;;;5060899;28;20456;-81
2022/03/25 09:41:10;;;;;;;25.80;22.10;;;25.90;55.50;;;;;;5055734;28;20495;-81
2022/03/25 09:43:38;;;;;;;23.67;20.37;;;26.20;55.50;;;;;;5053476;28;20452;-79
2022/03/25 09:46:05;;;;;;;29.27;22.60;;;26.20;56.90;;;;;;5063388;28;20459;-81
2022/03/25 09:48:33;;;;;;;31.80;21.50;;;25.80;54.20;;;;;;5069744;28;20456;-82
2022/03/25 09:51:00;;;;;;;24.33;21.20;;;25.70;53.40;;;;;;5069043;28;20528;-79
2022/03/25 09:53:30;;;;;;;24.50;20.57;;;24.90;53.50;;;;;;5058399;28;20515;-79
2022/03/25 09:55:58;;;;;;;29.30;22.27;;;24.90;53.20;;;;;;5064773;28;20488;-80
2022/03/25 09:58:25;;;;;;;28.80;20.70;;;25.30;55.00;;;;;;5060340;28;20452;-79
2022/03/25 10:00:53;;;;;;;23.30;18.57;;;25.50;53.30;;;;;;5060452;28;20476;-81
2022/03/25 10:03:24;;;;;;;25.70;20.30;;;26.40;52.50;;;;;;5063223;28;20466;-80
2022/03/25 10:05:58;;;;;;;21.83;19.40;;;26.30;52.70;;;;;;5063050;28;20573;-82
2022/03/25 10:08:32;;;;;;;27.93;21.43;;;27.70;53.80;;;;;;5063651;28;20451;-79
2022/03/25 10:11:21;;;;;;;29.00;22.17;;;29.30;50.70;;;;;;5055035;28;20924;-78
2022/03/25 10:13:49;;;;;;;25.53;19.87;;;28.70;49.10;;;;;;5057452;28;20495;-79
2022/03/25 10:16:26;;;;;;;28.20;20.97;;;28.50;50.30;;;;;;5058018;28;20490;-80
2022/03/25 10:18:54;;;;;;;23.00;19.20;;;28.60;47.90;;;;;;5053540;28;20454;-79
2022/03/25 10:21:22;;;;;;;24.73;20.40;;;29.70;49.30;;;;;;5054155;28;20467;-79
2022/03/25 10:23:49;;;;;;;20.77;18.60;;;28.60;47.20;;;;;;5053158;28;20535;-79
2022/03/25 10:26:16;;;;;;;24.10;18.30;;;28.70;49.50;;;;;;5057187;28;20458;-79
2022/03/25 10:28:44;;;;;;;21.17;17.80;;;29.10;49.80;;;;;;5051785;28;20468;-80
2022/03/25 10:31:13;;;;;;;18.33;16.30;;;29.20;47.50;;;;;;5056978;28;20468;-79
2022/03/25 10:33:46;;;;;;;21.43;17.20;;;29.70;48.50;;;;;;5058834;28;20517;-79
2022/03/25 10:36:14;;;;;;;21.23;18.10;;;30.60;47.50;;;;;;5041446;28;20890;-80
2022/03/25 10:38:46;;;;;;;25.00;19.10;;;29.90;47.70;;;;;;5036248;28;20836;-78
2022/03/25 10:41:14;;;;;;;21.13;18.93;;;28.80;47.60;;;;;;5047156;28;20555;-81
2022/03/25 10:43:56;;;;;;;23.63;18.90;;;28.90;47.90;;;;;;5052875;28;20455;-81
2022/03/25 10:46:30;;;;;;;20.20;17.73;;;29.50;48.30;;;;;;5054255;28;20494;-80
2022/03/25 10:48:58;;;;;;;23.17;18.77;;;30.80;47.60;;;;;;5057103;28;20451;-80
2022/03/25 10:51:29;;;;;;;20.00;17.73;;;29.80;44.80;;;;;;5059947;28;20518;-80
2022/03/25 10:54:01;;;;;;;23.37;19.77;;;28.80;45.20;;;;;;5065811;28;20471;-82
2022/03/25 10:56:30;;;;;;;24.43;20.47;;;27.80;46.50;;;;;;5062075;28;20449;-80
2022/03/25 10:58:58;;;;;;;24.63;20.70;;;28.90;49.70;;;;;;5067619;28;20479;-80
2022/03/25 11:01:25;;;;;;;23.77;19.87;;;29.00;45.70;;;;;;5059465;28;20499;-81
2022/03/25 11:03:56;;;;;;;22.70;19.93;;;30.00;46.60;;;;;;5066702;28;20455;-82
2022/03/25 11:06:32;;;;;;;23.30;20.90;;;30.60;47.20;;;;;;5063285;28;20486;-78
2022/03/25 11:09:00;;;;;;;23.13;20.73;;;31.20;45.50;;;;;;5060849;28;20458;-80
2022/03/25 11:11:27;;;;;;;22.93;20.27;;;30.50;46.10;;;;;;5065364;28;20567;-82
2022/03/25 11:13:56;;;;;;;25.80;22.60;;;31.10;47.10;;;;;;5060449;28;20475;-81
2022/03/25 11:16:24;;;;;;;24.23;21.73;;;31.30;44.70;;;;;;5062122;28;20519;-80
2022/03/25 11:18:55;;;;;;;25.17;21.07;;;31.10;44.60;;;;;;5060839;28;20460;-82
2022/03/25 11:21:23;;;;;;;26.27;21.60;;;30.10;44.60;;;;;;5064874;28;20467;-82
2022/03/25 11:23:55;;;;;;;24.70;22.07;;;30.60;45.90;;;;;;5062338;28;20531;-80
2022/03/25 11:26:27;;;;;;;25.27;21.03;;;31.40;45.30;;;;;;5060056;28;20489;-83
2022/03/25 11:28:57;;;;;;;27.70;21.97;;;31.10;43.20;;;;;;5063469;28;20462;-82
2022/03/25 11:31:25;;;;;;;25.10;21.20;;;31.90;44.30;;;;;;5056517;28;20479;-81
2022/03/25 11:34:12;;;;;;;24.63;22.10;;;31.70;44.20;;;;;;5061650;28;20468;-82
2022/03/25 11:36:43;;;;;;;23.63;21.13;;;31.20;45.20;;;;;;5059231;28;20440;-82
2022/03/25 11:39:24;;;;;;;25.17;21.63;;;31.80;43.70;;;;;;5062647;28;20456;-80
2022/03/25 11:41:54;;;;;;;23.10;20.60;;;31.60;43.60;;;;;;5060592;28;20864;-83
2022/03/25 11:44:25;;;;;;;22.57;20.10;;;32.30;44.80;;;;;;5065232;28;20448;-82
2022/03/25 11:47:17;;;;;;;24.27;19.70;;;32.40;42.60;;;;;;5070954;28;20486;-81
2022/03/25 11:49:44;;;;;;;22.67;19.17;;;32.00;43.50;;;;;;5069026;28;20519;-83
2022/03/25 11:52:29;;;;;;;25.23;22.80;;;32.50;43.40;;;;;;5072021;28;20513;-83
2022/03/25 11:54:58;;;;;;;25.00;21.53;;;33.00;42.00;;;;;;5071568;28;20466;-84
2022/03/25 11:57:27;;;;;;;28.60;22.30;;;32.80;42.20;;;;;;5069458;28;20452;-83
2022/03/25 11:59:56;;;;;;;24.53;21.93;;;33.10;42.50;;;;;;5071286;28;20865;-82
2022/03/25 12:02:29;;;;;;;22.50;20.03;;;34.30;41.30;;;;;;5072012;28;20467;-83
2022/03/25 12:04:57;;;;;;;20.33;18.27;;;32.50;41.50;;;;;;5069757;28;20462;-82
2022/03/25 12:07:24;;;;;;;19.00;17.10;;;31.60;41.90;;;;;;5082250;22;20503;-85
2022/03/25 12:09:50;;;;;;;22.40;17.43;;;31.20;41.80;;;;;;5025187;28;20445;-83
2022/03/25 12:12:17;;;;;;;19.83;17.83;;;31.20;42.10;;;;;;5023722;28;20460;-83
2022/03/25 12:15:10;;;;;;;21.17;18.43;;;31.20;42.30;;;;;;5042607;28;20453;-85
2022/03/25 12:17:37;;;;;;;22.97;19.63;;;32.10;41.10;;;;;;5049483;28;20506;-84
2022/03/25 12:20:05;;;;;;;19.93;17.60;;;31.70;40.90;;;;;;5061193;28;20458;-84
2022/03/25 12:22:42;;;;;;;21.80;19.80;;;31.20;42.50;;;;;;5060774;28;20444;-85
2022/03/25 12:25:21;;;;;;;23.43;21.03;;;30.90;40.70;;;;;;5060201;28;20433;-85
2022/03/25 12:27:48;;;;;;;23.50;19.80;;;32.90;43.10;;;;;;5061092;28;20489;-84
2022/03/25 12:30:19;;;;;;;19.93;17.97;;;32.20;40.70;;;;;;5064370;28;20450;-85
2022/03/25 12:32:47;;;;;;;23.57;19.10;;;32.10;42.40;;;;;;5061927;28;20452;-83
2022/03/25 12:35:16;;;;;;;20.13;18.10;;;32.20;41.20;;;;;;5062309;28;20448;-83
2022/03/25 12:38:18;;;;;;;22.27;19.97;;;32.50;40.60;;;;;;5060582;28;20498;-83
2022/03/25 12:40:45;;;;;;;22.70;20.60;;;32.60;41.00;;;;;;5062182;28;20803;-84
2022/03/25 12:43:12;;;;;;;22.63;20.23;;;32.20;41.00;;;;;;5064748;28;20458;-83